Time;durP1;ratioP1;P1;durP2;ratioP2;P2;SDS_P1;SDS_P2;PMS_P1;PMS_P2;Temp;Humidity;BMP_temperature;BMP_pressure;BME280_temperature;BME280_humidity;BME280_pressure;Samples;Min_cycle;Max_cycle;Signal;HPM_P1;HPM_P2
2022/10/22 00:01:44;;;;;;;;;;;21.00;52.90;;;;;;5028999;28;20028;-64
2022/10/22 00:04:11;;;;;;;;;;;21.10;53.00;;;;;;5024434;28;19961;-64
2022/10/22 00:06:41;;;;;;;;;;;21.10;53.00;;;;;;5027592;28;20003;-65
2022/10/22 00:09:08;;;;;;;;;;;21.10;53.00;;;;;;5024490;28;20475;-65
2022/10/22 00:11:34;;;;;;;;;;;21.10;53.00;;;;;;5010930;28;20019;-63
2022/10/22 00:14:01;;;;;;;;;;;21.10;53.00;;;;;;5025361;28;19960;-64
2022/10/22 00:16:28;;;;;;;;;;;21.00;52.90;;;;;;5028597;28;20348;-64
2022/10/22 00:18:54;;;;;;;;;;;21.10;53.00;;;;;;5021638;28;19926;-63
2022/10/22 00:21:21;;;;;;;;;;;21.10;53.00;;;;;;5022995;28;20019;-64
2022/10/22 00:23:49;;;;;;;;;;;21.10;53.00;;;;;;5031605;28;20584;-64
2022/10/22 00:26:16;;;;;;;;;;;21.10;53.00;;;;;;5011258;28;19997;-64
2022/10/22 00:28:43;;;;;;;;;;;21.10;53.00;;;;;;5042067;28;19925;-64
2022/10/22 00:31:10;;;;;;;;;;;21.10;52.90;;;;;;5048806;28;19963;-64
2022/10/22 00:33:37;;;;;;;;;;;21.10;53.00;;;;;;5037511;28;20020;-64
2022/10/22 00:36:04;;;;;;;;;;;21.10;53.00;;;;;;5029696;28;19975;-64
2022/10/22 00:38:31;;;;;;;;;;;21.10;52.90;;;;;;5038868;28;19924;-64
2022/10/22 00:40:59;;;;;;;;;;;21.10;53.00;;;;;;5027567;28;19925;-64
2022/10/22 00:43:26;;;;;;;;;;;21.10;53.00;;;;;;5030884;28;19968;-64
2022/10/22 00:45:53;;;;;;;;;;;21.10;53.00;;;;;;5028200;28;19979;-63
2022/10/22 00:48:20;;;;;;;;;;;21.10;53.00;;;;;;5028338;28;20272;-64
2022/10/22 00:50:48;;;;;;;;;;;21.10;53.00;;;;;;5029147;28;19925;-62
2022/10/22 00:53:16;;;;;;;;;;;21.10;53.00;;;;;;5026430;28;20429;-64
2022/10/22 00:55:43;;;;;;;;;;;21.10;53.00;;;;;;5031348;28;20310;-65
2022/10/22 00:58:11;;;;;;;;;;;21.10;53.00;;;;;;5029846;28;19979;-64
2022/10/22 01:00:38;;;;;;;;;;;21.10;53.00;;;;;;5029180;28;19947;-64
2022/10/22 01:03:04;;;;;;;;;;;21.10;53.00;;;;;;5046652;28;19925;-63
2022/10/22 01:05:31;;;;;;;;;;;21.10;53.00;;;;;;5029354;28;19964;-65
2022/10/22 01:07:58;;;;;;;;;;;21.10;52.90;;;;;;5028086;28;20297;-63
2022/10/22 01:10:27;;;;;;;;;;;21.10;52.90;;;;;;5030207;28;19925;-64
2022/10/22 01:12:59;;;;;;;;;;;21.10;53.00;;;;;;5030286;28;20028;-64
2022/10/22 01:18:23;;;;;;;;;;;21.10;52.90;;;;;;5105917;22;20350;-64
2022/10/22 01:20:58;;;;;;;;;;;21.10;52.90;;;;;;5066419;28;20015;-64
2022/10/22 01:23:30;;;;;;;;;;;21.10;52.90;;;;;;5076579;28;19960;-62
2022/10/22 01:25:58;;;;;;;;;;;21.10;52.90;;;;;;5050608;28;19970;-64
2022/10/22 01:28:26;;;;;;;;;;;21.10;53.00;;;;;;5065730;28;20036;-62
2022/10/22 01:30:54;;;;;;;;;;;21.10;52.90;;;;;;5066223;28;19974;-63
2022/10/22 01:33:21;;;;;;;;;;;21.10;53.00;;;;;;5082316;28;19921;-62
2022/10/22 01:35:48;;;;;;;;;;;21.10;52.90;;;;;;5064916;28;19920;-63
2022/10/22 01:38:26;;;;;;;;;;;21.10;53.00;;;;;;5078708;28;19971;-63
2022/10/22 01:40:53;;;;;;;;;;;21.10;52.90;;;;;;5061571;28;19970;-62
2022/10/22 01:43:21;;;;;;;;;;;21.10;53.00;;;;;;5059549;28;19960;-62
2022/10/22 01:45:48;;;;;;;;;;;21.10;53.00;;;;;;5081830;28;19921;-63
2022/10/22 01:48:29;;;;;;;;;;;21.10;53.00;;;;;;5082225;28;20009;-62
2022/10/22 01:51:00;;;;;;;;;;;21.10;53.00;;;;;;5081439;28;19924;-63
2022/10/22 01:53:29;;;;;;;;;;;21.10;53.00;;;;;;5076642;28;19984;-63
2022/10/22 01:55:57;;;;;;;;;;;21.10;53.00;;;;;;5063314;28;19933;-62
2022/10/22 01:58:27;;;;;;;;;;;21.10;53.00;;;;;;5064087;28;19956;-63
2022/10/22 02:00:55;;;;;;;;;;;21.10;53.00;;;;;;5081879;28;20005;-63
2022/10/22 02:03:24;;;;;;;;;;;21.10;53.00;;;;;;5064259;28;19948;-63
2022/10/22 02:05:51;;;;;;;;;;;21.10;53.00;;;;;;5081592;28;19974;-63
2022/10/22 02:08:19;;;;;;;;;;;21.10;53.00;;;;;;5080039;28;19925;-62
2022/10/22 02:10:46;;;;;;;;;;;21.10;53.00;;;;;;5081804;28;19978;-63
2022/10/22 02:13:13;;;;;;;;;;;21.10;53.00;;;;;;5081704;28;20427;-63
2022/10/22 02:15:40;;;;;;;;;;;21.10;53.00;;;;;;5080803;28;19925;-62
2022/10/22 02:18:07;;;;;;;;;;;21.10;53.00;;;;;;5063708;28;19974;-62
2022/10/22 02:20:35;;;;;;;;;;;21.10;53.00;;;;;;5062080;28;19956;-62
2022/10/22 02:23:02;;;;;;;;;;;21.10;53.00;;;;;;5063875;28;19928;-63
2022/10/22 02:25:29;;;;;;;;;;;21.10;53.00;;;;;;5061524;28;19921;-63
2022/10/22 02:27:58;;;;;;;;;;;21.10;53.00;;;;;;5073668;28;19921;-63
2022/10/22 02:30:25;;;;;;;;;;;21.10;53.00;;;;;;5066812;28;19920;-62
2022/10/22 02:32:53;;;;;;;;;;;21.10;53.00;;;;;;5067211;28;19970;-63
2022/10/22 02:35:21;;;;;;;;;;;21.10;53.00;;;;;;5047303;28;19960;-63
2022/10/22 02:37:49;;;;;;;;;;;21.10;53.00;;;;;;5061772;28;19963;-62
2022/10/22 02:40:15;;;;;;;;;;;21.10;53.00;;;;;;5050985;28;19960;-63
2022/10/22 02:42:42;;;;;;;;;;;21.10;53.00;;;;;;5066539;28;19921;-63
2022/10/22 02:45:09;;;;;;;;;;;21.10;53.00;;;;;;5067283;28;19920;-63
2022/10/22 02:47:36;;;;;;;;;;;21.10;53.00;;;;;;5067163;28;20540;-62
2022/10/22 02:50:04;;;;;;;;;;;21.10;53.00;;;;;;5048917;28;19925;-63
2022/10/22 02:52:32;;;;;;;;;;;21.10;53.00;;;;;;5067749;28;19948;-62
2022/10/22 02:55:00;;;;;;;;;;;21.10;53.00;;;;;;5067355;28;19920;-63
2022/10/22 02:57:26;;;;;;;;;;;21.10;53.00;;;;;;5050410;28;20028;-63
2022/10/22 02:59:54;;;;;;;;;;;21.10;53.00;;;;;;5065633;28;19968;-63
2022/10/22 03:02:21;;;;;;;;;;;21.10;53.00;;;;;;5050270;28;19920;-63
2022/10/22 03:04:47;;;;;;;;;;;21.10;53.00;;;;;;5048292;28;19990;-63
2022/10/22 03:07:14;;;;;;;;;;;21.10;53.00;;;;;;5051747;28;19948;-62
2022/10/22 03:09:41;;;;;;;;;;;21.10;53.00;;;;;;5050455;28;20019;-63
2022/10/22 03:12:09;;;;;;;;;;;21.10;53.00;;;;;;5049990;28;19925;-63
2022/10/22 03:14:37;;;;;;;;;;;21.10;53.00;;;;;;5050281;28;19924;-64
2022/10/22 03:17:04;;;;;;;;;;;21.10;53.00;;;;;;5054536;28;19991;-63
2022/10/22 03:19:34;;;;;;;;;;;21.10;53.00;;;;;;5049303;28;19924;-64
2022/10/22 03:22:01;;;;;;;;;;;21.10;53.00;;;;;;5048971;28;20229;-63
2022/10/22 03:24:29;;;;;;;;;;;21.10;53.00;;;;;;5050053;28;20351;-64
2022/10/22 03:26:55;;;;;;;;;;;21.10;53.00;;;;;;5066368;28;20351;-63
2022/10/22 03:29:23;;;;;;;;;;;21.10;53.00;;;;;;5049975;28;19924;-63
2022/10/22 03:31:50;;;;;;;;;;;21.10;53.00;;;;;;5045720;28;20432;-63
2022/10/22 03:34:17;;;;;;;;;;;21.10;53.00;;;;;;5036915;28;19970;-63
2022/10/22 03:36:44;;;;;;;;;;;21.10;53.00;;;;;;5048554;28;19921;-63
2022/10/22 03:39:10;;;;;;;;;;;21.10;53.00;;;;;;5050507;28;19964;-63
2022/10/22 03:41:37;;;;;;;;;;;21.10;53.00;;;;;;5066085;28;19920;-63
2022/10/22 03:44:04;;;;;;;;;;;21.10;53.00;;;;;;5064161;28;19970;-63
2022/10/22 03:46:32;;;;;;;;;;;21.10;53.00;;;;;;5049243;28;19925;-63
2022/10/22 03:48:58;;;;;;;;;;;21.10;53.00;;;;;;5048851;28;19920;-64
2022/10/22 03:51:26;;;;;;;;;;;21.10;53.00;;;;;;5066446;28;20278;-64
2022/10/22 03:53:53;;;;;;;;;;;21.10;53.00;;;;;;5064585;28;19928;-64
2022/10/22 03:56:19;;;;;;;;;;;21.10;53.00;;;;;;5050788;28;19920;-63
2022/10/22 03:58:46;;;;;;;;;;;21.10;53.00;;;;;;5048502;28;19927;-63
2022/10/22 04:01:13;;;;;;;;;;;21.10;53.00;;;;;;5065583;28;19983;-63
2022/10/22 04:03:41;;;;;;;;;;;21.10;53.00;;;;;;5036336;28;19941;-63
2022/10/22 04:06:08;;;;;;;;;;;21.10;53.00;;;;;;5065064;28;19968;-63
2022/10/22 04:08:35;;;;;;;;;;;21.10;53.00;;;;;;5047345;28;19972;-63
2022/10/22 04:11:02;;;;;;;;;;;21.10;53.00;;;;;;5049337;28;19988;-63
2022/10/22 04:13:28;;;;;;;;;;;21.10;53.00;;;;;;5045183;28;19921;-62
2022/10/22 04:15:55;;;;;;;;;;;21.10;53.00;;;;;;5062172;28;19943;-63
2022/10/22 04:18:22;;;;;;;;;;;21.10;53.00;;;;;;5050536;28;20023;-63
2022/10/22 04:20:51;;;;;;;;;;;21.10;53.00;;;;;;5049384;28;19928;-63
2022/10/22 04:23:17;;;;;;;;;;;21.10;53.00;;;;;;5033628;28;20371;-63
2022/10/22 04:25:44;;;;;;;;;;;21.10;53.00;;;;;;5064967;28;20377;-63
2022/10/22 04:28:11;;;;;;;;;;;21.10;53.00;;;;;;5065180;28;19927;-63
2022/10/22 04:30:37;;;;;;;;;;;21.10;53.00;;;;;;5065071;28;20422;-63
2022/10/22 04:33:04;;;;;;;;;;;21.10;53.00;;;;;;5047507;28;19987;-63
2022/10/22 04:35:31;;;;;;;;;;;21.10;53.00;;;;;;5064479;28;20274;-63
2022/10/22 04:37:59;;;;;;;;;;;21.10;53.00;;;;;;5049672;28;19921;-63
2022/10/22 04:40:25;;;;;;;;;;;21.10;53.00;;;;;;5064084;28;20008;-63
2022/10/22 04:42:52;;;;;;;;;;;21.10;53.00;;;;;;5064744;28;19975;-63
2022/10/22 04:45:19;;;;;;;;;;;21.10;53.00;;;;;;5048579;28;19925;-63
2022/10/22 04:47:45;;;;;;;;;;;21.10;53.00;;;;;;5048114;28;19996;-63
2022/10/22 04:50:12;;;;;;;;;;;21.10;53.00;;;;;;5048402;28;20015;-63
2022/10/22 04:52:39;;;;;;;;;;;21.10;53.00;;;;;;5049759;28;19955;-63
2022/10/22 04:55:07;;;;;;;;;;;21.10;53.00;;;;;;5058149;28;19975;-63
2022/10/22 04:57:34;;;;;;;;;;;21.10;53.00;;;;;;5064465;28;19974;-63
2022/10/22 05:00:01;;;;;;;;;;;21.10;53.00;;;;;;5063928;28;19925;-64
2022/10/22 05:02:27;;;;;;;;;;;21.10;53.00;;;;;;5060889;28;19953;-65
2022/10/22 05:04:54;;;;;;;;;;;21.10;53.00;;;;;;5042223;28;20435;-64
2022/10/22 05:07:22;;;;;;;;;;;21.10;53.50;;;;;;5046778;28;19933;-64
2022/10/22 05:09:49;;;;;;;;;;;21.10;53.00;;;;;;5064351;28;19956;-64
2022/10/22 05:12:17;;;;;;;;;;;21.10;53.00;;;;;;5048381;28;20434;-64
2022/10/22 05:14:43;;;;;;;;;;;21.10;53.00;;;;;;5047150;28;19925;-63
2022/10/22 05:17:10;;;;;;;;;;;21.10;53.00;;;;;;5062803;28;19920;-63
2022/10/22 05:19:37;;;;;;;;;;;21.10;53.00;;;;;;5064773;28;20027;-63
2022/10/22 05:22:04;;;;;;;;;;;21.10;53.00;;;;;;5049916;28;20004;-63
2022/10/22 05:24:31;;;;;;;;;;;21.10;53.00;;;;;;5064526;28;20421;-63
2022/10/22 05:26:57;;;;;;;;;;;21.10;53.00;;;;;;5064515;28;19964;-62
2022/10/22 05:29:25;;;;;;;;;;;21.10;53.00;;;;;;5063893;28;19925;-62
2022/10/22 05:31:52;;;;;;;;;;;21.10;53.00;;;;;;5065201;28;19927;-63
2022/10/22 05:34:19;;;;;;;;;;;21.10;53.00;;;;;;5062875;28;19924;-63
2022/10/22 05:36:46;;;;;;;;;;;21.10;53.00;;;;;;5048846;28;20366;-64
2022/10/22 05:39:12;;;;;;;;;;;21.10;53.00;;;;;;5049656;28;19925;-63
2022/10/22 05:41:39;;;;;;;;;;;21.10;53.00;;;;;;5060853;28;19963;-64
2022/10/22 05:44:06;;;;;;;;;;;21.10;53.00;;;;;;5065001;28;20043;-64
2022/10/22 05:46:34;;;;;;;;;;;21.10;53.00;;;;;;5048162;28;20019;-63
2022/10/22 05:49:01;;;;;;;;;;;21.10;53.00;;;;;;5036885;28;20022;-64
2022/10/22 05:51:29;;;;;;;;;;;21.10;53.00;;;;;;5061494;28;19971;-64
2022/10/22 05:53:56;;;;;;;;;;;21.10;53.00;;;;;;5064984;28;19979;-64
2022/10/22 05:56:23;;;;;;;;;;;21.10;53.00;;;;;;5049681;28;20013;-64
2022/10/22 05:58:49;;;;;;;;;;;21.10;53.00;;;;;;5064574;28;20378;-64
2022/10/22 06:01:16;;;;;;;;;;;21.10;53.00;;;;;;5056327;28;19990;-64
2022/10/22 06:03:44;;;;;;;;;;;21.10;53.00;;;;;;5065376;28;20024;-64
2022/10/22 06:06:21;;;;;;;;;;;21.10;53.00;;;;;;5050071;28;19960;-62
2022/10/22 06:08:47;;;;;;;;;;;21.10;53.00;;;;;;5051701;28;20019;-63
2022/10/22 06:11:14;;;;;;;;;;;21.10;53.00;;;;;;5051153;28;19974;-63
2022/10/22 06:13:41;;;;;;;;;;;21.10;53.00;;;;;;5052992;28;19921;-63
2022/10/22 06:16:07;;;;;;;;;;;21.10;53.00;;;;;;5050815;28;19947;-63
2022/10/22 06:18:34;;;;;;;;;;;21.10;53.00;;;;;;5067799;28;19972;-63
2022/10/22 06:21:06;;;;;;;;;;;21.10;53.00;;;;;;5066419;28;19920;-63
2022/10/22 06:23:33;;;;;;;;;;;21.10;53.20;;;;;;5067358;28;19928;-63
2022/10/22 06:26:00;;;;;;;;;;;21.10;53.00;;;;;;5051058;28;20437;-63
2022/10/22 06:28:26;;;;;;;;;;;21.10;53.00;;;;;;5050536;28;20323;-63
2022/10/22 06:30:53;;;;;;;;;;;21.10;53.10;;;;;;5066194;28;19921;-63
2022/10/22 06:33:20;;;;;;;;;;;21.10;53.00;;;;;;5050976;28;20007;-63
2022/10/22 06:35:47;;;;;;;;;;;21.10;53.00;;;;;;5063749;28;19925;-63
2022/10/22 06:38:15;;;;;;;;;;;21.10;53.00;;;;;;5050448;28;19921;-63
2022/10/22 06:40:42;;;;;;;;;;;21.10;53.00;;;;;;5048813;28;19925;-63
2022/10/22 06:43:09;;;;;;;;;;;21.10;53.00;;;;;;5063481;28;19932;-63
2022/10/22 06:45:35;;;;;;;;;;;21.10;53.00;;;;;;5059523;28;19944;-62
2022/10/22 06:48:02;;;;;;;;;;;21.10;53.00;;;;;;5047965;28;19921;-63
2022/10/22 06:50:29;;;;;;;;;;;21.10;53.00;;;;;;5049651;28;19921;-63
2022/10/22 06:52:55;;;;;;;;;;;21.10;53.10;;;;;;5065252;28;19967;-63
2022/10/22 06:55:23;;;;;;;;;;;21.10;53.10;;;;;;5050964;28;19971;-63
2022/10/22 06:57:50;;;;;;;;;;;21.10;53.10;;;;;;5050251;28;19963;-63
2022/10/22 07:00:17;;;;;;;;;;;21.10;53.00;;;;;;5067226;28;19968;-63
2022/10/22 07:02:43;;;;;;;;;;;21.10;53.00;;;;;;5049432;28;19979;-63
2022/10/22 07:05:10;;;;;;;;;;;21.10;53.10;;;;;;5050719;28;19924;-63
2022/10/22 07:07:37;;;;;;;;;;;21.10;53.00;;;;;;5052024;28;19929;-63
2022/10/22 07:10:03;;;;;;;;;;;21.10;53.00;;;;;;5063614;28;19967;-63
2022/10/22 07:12:31;;;;;;;;;;;21.10;53.00;;;;;;5062236;28;19998;-63
2022/10/22 07:14:58;;;;;;;;;;;21.10;53.00;;;;;;5061994;28;19936;-63
2022/10/22 07:17:25;;;;;;;;;;;21.10;53.00;;;;;;5060380;28;19932;-64
2022/10/22 07:19:51;;;;;;;;;;;21.10;53.10;;;;;;5050904;28;19928;-64
2022/10/22 07:22:18;;;;;;;;;;;21.10;53.00;;;;;;5050093;28;19948;-64
2022/10/22 07:24:46;;;;;;;;;;;21.10;53.00;;;;;;5063341;28;20016;-63
2022/10/22 07:27:13;;;;;;;;;;;21.10;53.00;;;;;;5048645;28;19929;-63
2022/10/22 07:29:41;;;;;;;;;;;21.10;53.00;;;;;;5052615;28;19979;-63
2022/10/22 07:32:07;;;;;;;;;;;21.10;53.00;;;;;;5062455;28;19975;-63
2022/10/22 07:34:34;;;;;;;;;;;21.10;53.00;;;;;;5062588;28;19925;-63
2022/10/22 07:37:01;;;;;;;;;;;21.10;53.00;;;;;;5049054;28;19925;-63
2022/10/22 07:39:28;;;;;;;;;;;21.10;53.00;;;;;;5049703;28;19964;-64
2022/10/22 07:41:54;;;;;;;;;;;21.10;53.00;;;;;;5063171;28;20003;-64
2022/10/22 07:44:21;;;;;;;;;;;21.10;53.10;;;;;;5052559;28;20015;-63
2022/10/22 07:46:49;;;;;;;;;;;21.10;53.10;;;;;;5064955;28;19924;-63
2022/10/22 07:49:16;;;;;;;;;;;21.10;53.00;;;;;;5066295;28;19940;-63
2022/10/22 07:51:42;;;;;;;;;;;21.10;53.00;;;;;;5049895;28;19921;-64
2022/10/22 07:54:09;;;;;;;;;;;21.10;53.00;;;;;;5053553;28;19931;-64
2022/10/22 07:56:36;;;;;;;;;;;21.10;53.00;;;;;;5065742;28;20005;-64
2022/10/22 07:59:02;;;;;;;;;;;21.10;53.00;;;;;;5066164;28;20023;-64
2022/10/22 08:01:29;;;;;;;;;;;21.10;53.00;;;;;;5061287;28;19928;-63
2022/10/22 08:03:57;;;;;;;;;;;21.10;53.00;;;;;;5048531;28;20024;-63
2022/10/22 08:06:24;;;;;;;;;;;21.10;53.00;;;;;;5063397;28;19925;-63
2022/10/22 08:08:50;;;;;;;;;;;21.10;53.00;;;;;;5064689;28;19924;-63
2022/10/22 08:11:17;;;;;;;;;;;21.10;53.10;;;;;;5048942;28;20020;-63
2022/10/22 08:13:44;;;;;;;;;;;21.10;53.10;;;;;;5064647;28;19982;-63
2022/10/22 08:16:10;;;;;;;;;;;21.10;53.00;;;;;;5048188;28;19943;-63
2022/10/22 08:18:38;;;;;;;;;;;21.10;53.10;;;;;;5060733;28;19974;-64
2022/10/22 08:21:06;;;;;;;;;;;21.10;53.10;;;;;;5048659;28;19921;-64
2022/10/22 08:23:33;;;;;;;;;;;21.10;53.10;;;;;;5054893;28;19971;-63
2022/10/22 08:26:01;;;;;;;;;;;21.10;53.20;;;;;;5047070;28;19920;-63
2022/10/22 08:28:28;;;;;;;;;;;21.10;53.20;;;;;;5047888;28;19975;-63
2022/10/22 08:30:55;;;;;;;;;;;21.10;53.20;;;;;;5058741;28;19928;-63
2022/10/22 08:33:21;;;;;;;;;;;21.10;53.20;;;;;;5047930;28;19921;-63
2022/10/22 08:35:49;;;;;;;;;;;21.10;53.20;;;;;;5044959;28;20027;-63
2022/10/22 08:38:17;;;;;;;;;;;21.10;53.20;;;;;;5056729;28;19975;-63
2022/10/22 08:40:44;;;;;;;;;;;21.10;53.20;;;;;;5046570;28;20007;-63
2022/10/22 08:43:27;;;;;;;;;;;21.10;53.20;;;;;;5059937;28;19921;-62
2022/10/22 08:45:56;;;;;;;;;;;21.10;53.20;;;;;;5039531;28;19920;-63
2022/10/22 08:48:26;;;;;;;;;;;21.10;53.20;;;;;;5061753;28;19925;-63
2022/10/22 08:50:54;;;;;;;;;;;21.10;53.20;;;;;;5040818;28;19971;-63
2022/10/22 08:53:25;;;;;;;;;;;21.10;53.20;;;;;;5047718;28;20016;-63
2022/10/22 08:55:52;;;;;;;;;;;21.10;53.20;;;;;;5062289;28;19932;-63
2022/10/22 08:58:20;;;;;;;;;;;21.10;53.20;;;;;;5048012;28;19928;-63
2022/10/22 09:00:47;;;;;;;;;;;21.20;53.30;;;;;;5044615;28;20019;-62
2022/10/22 09:03:41;;;;;;;;;;;21.10;53.20;;;;;;5047661;28;19971;-63
2022/10/22 09:06:09;;;;;;;;;;;21.20;53.30;;;;;;5000544;28;19925;-63
2022/10/22 09:08:38;;;;;;;;;;;21.20;53.30;;;;;;5061597;28;19952;-63
2022/10/22 09:11:06;;;;;;;;;;;21.20;53.20;;;;;;5062536;28;19960;-62
2022/10/22 09:13:33;;;;;;;;;;;21.20;53.20;;;;;;5063065;28;19922;-63
2022/10/22 09:16:00;;;;;;;;;;;21.20;53.20;;;;;;5047171;28;19931;-64
2022/10/22 09:18:31;;;;;;;;;;;21.20;53.30;;;;;;5047658;28;19948;-65
2022/10/22 09:20:58;;;;;;;;;;;21.20;53.30;;;;;;5053407;28;19920;-66
2022/10/22 09:23:28;;;;;;;;;;;21.20;53.30;;;;;;5069258;28;20384;-65
2022/10/22 09:25:56;;;;;;;;;;;21.20;53.40;;;;;;5054173;28;20011;-65
2022/10/22 09:28:22;;;;;;;;;;;21.20;53.50;;;;;;5053304;28;19921;-66
2022/10/22 09:30:49;;;;;;;;;;;21.20;53.60;;;;;;5054179;28;19959;-67
2022/10/22 09:33:17;;;;;;;;;;;21.20;53.70;;;;;;5050722;28;20012;-64
2022/10/22 09:35:44;;;;;;;;;;;21.20;53.80;;;;;;5052682;28;20324;-65
2022/10/22 09:38:11;;;;;;;;;;;21.20;53.80;;;;;;5053942;28;19960;-67
2022/10/22 09:40:44;;;;;;;;;;;21.20;53.90;;;;;;5073072;28;19921;-65
2022/10/22 09:43:13;;;;;;;;;;;21.20;53.90;;;;;;5073988;28;19932;-60
2022/10/22 09:45:40;;;;;;;;;;;21.20;54.00;;;;;;5058595;28;19943;-74
2022/10/22 09:48:10;;;;;;;;;;;21.20;54.10;;;;;;5074954;28;19920;-66
2022/10/22 09:50:38;;;;;;;;;;;21.20;54.30;;;;;;5074808;28;19921;-67
2022/10/22 09:53:06;;;;;;;;;;;21.20;54.30;;;;;;5056726;28;19944;-62
2022/10/22 09:55:32;;;;;;;;;;;21.20;54.50;;;;;;5074627;28;20003;-64
2022/10/22 09:57:59;;;;;;;;;;;21.20;54.70;;;;;;5072822;28;19924;-65
2022/10/22 10:00:27;;;;;;;;;;;21.10;54.70;;;;;;5056948;28;20434;-66
2022/10/22 10:02:56;;;;;;;;;;;21.10;54.70;;;;;;5057540;28;20347;-65
2022/10/22 10:05:25;;;;;;;;;;;21.10;54.80;;;;;;5057941;28;19931;-65
2022/10/22 10:07:52;;;;;;;;;;;21.10;55.30;;;;;;5073983;28;19925;-67
2022/10/22 10:10:19;;;;;;;;;;;21.10;54.70;;;;;;5070079;28;19966;-67
2022/10/22 10:12:46;;;;;;;;;;;21.10;54.80;;;;;;5073353;28;20445;-65
2022/10/22 10:15:15;;;;;;;;;;;21.10;55.00;;;;;;5056939;28;20041;-65
2022/10/22 10:17:44;;;;;;;;;;;21.10;54.90;;;;;;5052011;28;19928;-70
2022/10/22 10:20:14;;;;;;;;;;;21.10;55.00;;;;;;5067294;28;19925;-66
2022/10/22 10:22:43;;;;;;;;;;;21.10;54.90;;;;;;5043484;28;19928;-70
2022/10/22 10:25:14;;;;;;;;;;;21.10;54.90;;;;;;5034981;28;19933;-70
2022/10/22 10:27:41;;;;;;;;;;;21.10;54.90;;;;;;5060853;28;19936;-70
2022/10/22 10:30:09;;;;;;;;;;;21.10;54.80;;;;;;5060634;28;19921;-68
2022/10/22 10:32:47;;;;;;;;;;;21.10;54.80;;;;;;5059021;28;19986;-67
2022/10/22 10:35:21;;;;;;;;;;;21.10;54.80;;;;;;5082495;28;19925;-71
2022/10/22 10:37:50;;;;;;;;;;;21.10;54.90;;;;;;5061450;28;19932;-68
2022/10/22 10:40:23;;;;;;;;;;;21.10;54.90;;;;;;5061173;28;19933;-69
2022/10/22 10:42:51;;;;;;;;;;;21.10;54.80;;;;;;5081022;28;20252;-69
2022/10/22 10:45:18;;;;;;;;;;;21.10;54.80;;;;;;5076271;28;19920;-73
2022/10/22 10:47:56;;;;;;;;;;;21.10;54.70;;;;;;5069233;28;19961;-69
2022/10/22 10:50:26;;;;;;;;;;;21.10;54.70;;;;;;5051638;28;19967;-68
2022/10/22 10:52:55;;;;;;;;;;;21.10;54.70;;;;;;5070049;28;19986;-71
2022/10/22 10:55:22;;;;;;;;;;;21.10;54.60;;;;;;5048854;28;19959;-70
2022/10/22 10:57:49;;;;;;;;;;;21.10;54.60;;;;;;5052350;28;19960;-64
2022/10/22 11:00:16;;;;;;;;;;;21.10;54.70;;;;;;5054311;28;19920;-67
2022/10/22 11:02:58;;;;;;;;;;;21.10;54.70;;;;;;5067429;28;19933;-67
2022/10/22 11:05:34;;;;;;;;;;;21.10;54.70;;;;;;5051116;28;19924;-61
2022/10/22 11:08:01;;;;;;;;;;;21.10;54.80;;;;;;5063351;28;19921;-69
2022/10/22 11:10:29;;;;;;;;;;;21.10;54.90;;;;;;5050482;28;19932;-71
2022/10/22 11:12:57;;;;;;;;;;;21.20;55.00;;;;;;5066072;28;20421;-69
2022/10/22 11:15:26;;;;;;;;;;;21.20;55.10;;;;;;5061181;28;19974;-69
2022/10/22 11:17:53;;;;;;;;;;;21.20;55.00;;;;;;5049770;28;19920;-70
2022/10/22 11:20:20;;;;;;;;;;;21.20;55.10;;;;;;5049254;28;20015;-68
2022/10/22 11:22:48;;;;;;;;;;;21.20;55.10;;;;;;5067407;28;19921;-68
2022/10/22 11:25:16;;;;;;;;;;;21.20;55.00;;;;;;5050517;28;20400;-68
2022/10/22 11:27:45;;;;;;;;;;;21.20;55.00;;;;;;5072949;28;19974;-69
2022/10/22 11:30:13;;;;;;;;;;;21.20;55.00;;;;;;5049413;28;19978;-69
2022/10/22 11:32:41;;;;;;;;;;;21.20;55.00;;;;;;5050497;28;20020;-69
2022/10/22 11:35:08;;;;;;;;;;;21.20;54.90;;;;;;5072107;28;19963;-69
2022/10/22 11:37:37;;;;;;;;;;;21.20;54.90;;;;;;5065097;28;19927;-69
2022/10/22 11:40:05;;;;;;;;;;;21.20;55.00;;;;;;5066098;28;19927;-70
2022/10/22 11:42:33;;;;;;;;;;;21.20;54.90;;;;;;5049701;28;19979;-69
2022/10/22 11:45:00;;;;;;;;;;;21.20;55.00;;;;;;5051073;28;19921;-69
2022/10/22 11:47:28;;;;;;;;;;;21.20;55.00;;;;;;5047832;28;20383;-69
2022/10/22 11:49:56;;;;;;;;;;;21.20;54.90;;;;;;5048787;28;19921;-70
2022/10/22 11:52:23;;;;;;;;;;;21.20;54.90;;;;;;5049163;28;19968;-70
2022/10/22 11:54:51;;;;;;;;;;;21.30;55.00;;;;;;5051305;28;19940;-69
2022/10/22 11:57:20;;;;;;;;;;;21.20;55.00;;;;;;5050707;28;19925;-70
2022/10/22 11:59:49;;;;;;;;;;;21.20;54.90;;;;;;5044323;28;19925;-70
2022/10/22 12:02:30;;;;;;;;;;;21.20;55.00;;;;;;5056335;28;19963;-69
2022/10/22 12:05:15;;;;;;;;;;;21.20;54.90;;;;;;5050850;28;19920;-70
2022/10/22 12:07:49;;;;;;;;;;;21.20;54.90;;;;;;5051270;28;20038;-70
2022/10/22 12:10:16;;;;;;;;;;;21.20;54.90;;;;;;5045989;28;19921;-69
2022/10/22 12:12:44;;;;;;;;;;;21.20;55.00;;;;;;5061302;28;20224;-69
2022/10/22 12:15:20;;;;;;;;;;;21.20;55.00;;;;;;5064748;28;19929;-69
2022/10/22 12:17:47;;;;;;;;;;;21.20;55.00;;;;;;5060938;28;19928;-69
2022/10/22 12:20:15;;;;;;;;;;;21.20;54.90;;;;;;5047250;28;19980;-70
2022/10/22 12:22:42;;;;;;;;;;;21.20;55.00;;;;;;5046472;28;19956;-70
2022/10/22 12:25:10;;;;;;;;;;;21.30;55.10;;;;;;5065961;28;19925;-72
2022/10/22 12:27:37;;;;;;;;;;;21.30;55.10;;;;;;5065184;28;20358;-74
2022/10/22 12:30:16;;;;;;;;;;;21.30;55.10;;;;;;5049590;28;19967;-72
2022/10/22 12:32:43;;;;;;;;;;;21.30;55.20;;;;;;5056537;28;19931;-73
2022/10/22 12:35:14;;;;;;;;;;;21.30;55.40;;;;;;5050004;28;20272;-70
2022/10/22 12:37:41;;;;;;;;;;;21.30;55.40;;;;;;5051933;28;19991;-76
2022/10/22 12:40:18;;;;;;;;;;;21.30;55.50;;;;;;5060001;28;19974;-71
2022/10/22 12:42:49;;;;;;;;;;;21.30;55.40;;;;;;5069040;28;19979;-71
2022/10/22 12:45:17;;;;;;;;;;;21.30;55.40;;;;;;5066544;28;19979;-74
2022/10/22 12:47:47;;;;;;;;;;;21.30;55.50;;;;;;5048807;28;19990;-74
2022/10/22 12:50:16;;;;;;;;;;;21.30;55.50;;;;;;5048166;28;20282;-70
2022/10/22 12:52:43;;;;;;;;;;;21.30;55.50;;;;;;5050762;28;19927;-76
2022/10/22 12:55:14;;;;;;;;;;;21.30;55.60;;;;;;5062381;28;20016;-68
2022/10/22 12:57:40;;;;;;;;;;;21.30;55.60;;;;;;5031407;28;20071;-71
2022/10/22 13:00:21;;;;;;;;;;;21.30;55.60;;;;;;5040169;28;19921;-72
2022/10/22 13:02:47;;;;;;;;;;;21.30;55.60;;;;;;5064653;28;20020;-71
2022/10/22 13:05:15;;;;;;;;;;;21.30;55.60;;;;;;5065034;28;19982;-71
2022/10/22 13:07:42;;;;;;;;;;;21.30;55.60;;;;;;5047346;28;19975;-72
2022/10/22 13:10:15;;;;;;;;;;;21.30;55.70;;;;;;5047378;28;20015;-72
2022/10/22 13:12:43;;;;;;;;;;;21.30;55.70;;;;;;5065384;28;20247;-72
2022/10/22 13:15:22;;;;;;;;;;;21.20;55.60;;;;;;5048579;28;19987;-72
2022/10/22 13:17:49;;;;;;;;;;;21.20;55.60;;;;;;5061838;28;19921;-72
2022/10/22 13:20:17;;;;;;;;;;;21.20;55.70;;;;;;5064094;28;19921;-72
2022/10/22 13:22:52;;;;;;;;;;;21.20;55.60;;;;;;5065355;28;19928;-73
2022/10/22 13:25:21;;;;;;;;;;;21.20;55.60;;;;;;5049472;28;19974;-72
2022/10/22 13:27:48;;;;;;;;;;;21.20;55.60;;;;;;5064970;28;20286;-73
2022/10/22 13:30:17;;;;;;;;;;;21.20;55.60;;;;;;5063811;28;20534;-73
2022/10/22 13:32:48;;;;;;;;;;;21.20;55.60;;;;;;5047218;28;19994;-72
2022/10/22 13:35:15;;;;;;;;;;;21.20;55.60;;;;;;5047517;28;19974;-72
2022/10/22 13:37:42;;;;;;;;;;;21.20;55.50;;;;;;5047607;28;20182;-72
2022/10/22 13:40:11;;;;;;;;;;;21.20;55.50;;;;;;5064000;28;20020;-71
2022/10/22 13:42:38;;;;;;;;;;;21.20;55.40;;;;;;5048260;28;19956;-71
2022/10/22 13:45:05;;;;;;;;;;;21.20;55.40;;;;;;5049269;28;19946;-70
2022/10/22 13:47:31;;;;;;;;;;;21.20;55.40;;;;;;5047910;28;19927;-72
2022/10/22 13:50:00;;;;;;;;;;;21.20;55.30;;;;;;5064326;28;19974;-72
2022/10/22 13:52:33;;;;;;;;;;;21.20;55.30;;;;;;5047551;28;19921;-71
2022/10/22 13:55:00;;;;;;;;;;;21.20;55.30;;;;;;5047362;28;20045;-72
2022/10/22 13:57:26;;;;;;;;;;;21.20;55.20;;;;;;5058657;28;19978;-71
2022/10/22 13:59:53;;;;;;;;;;;21.20;55.20;;;;;;5046444;28;19925;-72
2022/10/22 14:02:23;;;;;;;;;;;21.20;55.20;;;;;;5048071;28;19979;-72
2022/10/22 14:04:50;;;;;;;;;;;21.20;55.10;;;;;;5047440;28;19939;-71
2022/10/22 14:07:18;;;;;;;;;;;21.20;55.10;;;;;;5053879;28;19924;-72
2022/10/22 14:09:44;;;;;;;;;;;21.20;55.10;;;;;;5061813;28;19939;-72
2022/10/22 14:12:12;;;;;;;;;;;21.20;55.60;;;;;;5047357;28;19921;-71
2022/10/22 14:14:39;;;;;;;;;;;21.20;55.00;;;;;;5050698;28;20358;-72
2022/10/22 14:17:05;;;;;;;;;;;21.20;55.00;;;;;;5047186;28;20011;-71
2022/10/22 14:19:32;;;;;;;;;;;21.20;55.00;;;;;;5047113;28;19982;-72
2022/10/22 14:21:59;;;;;;;;;;;21.20;54.90;;;;;;5047931;28;19933;-72
2022/10/22 14:24:27;;;;;;;;;;;21.20;54.90;;;;;;5053912;28;19928;-70